createdAt,value
2018-08-31T00:15:50.508Z,51.09
2018-08-31T00:45:50.794Z,50.42
2018-08-31T01:00:50.791Z,51.37
2018-08-31T01:15:51.080Z,56.32
2018-08-31T01:30:50.772Z,52.28
2018-08-31T01:45:51.290Z,51.82
2018-08-31T02:00:51.655Z,50.86
2018-08-31T02:15:51.122Z,51.65
2018-08-31T02:30:51.223Z,51.25
2018-08-31T02:45:50.611Z,51.09
2018-08-31T03:00:50.792Z,51.40
2018-08-31T03:15:51.059Z,51.30
2018-08-31T03:30:49.999Z,51.08
2018-08-31T03:45:50.987Z,53.22
2018-08-31T04:00:50.964Z,52.89
2018-08-31T04:15:51.050Z,53.51
2018-08-31T04:30:52.607Z,51.69
2018-08-31T04:45:50.601Z,51.33
2018-08-31T05:00:50.536Z,50.32
2018-08-31T05:15:50.076Z,49.95
2018-08-31T05:30:50.506Z,50.37
2018-08-31T05:45:52.612Z,47.79
2018-08-31T06:00:51.017Z,47.67
2018-08-31T06:15:50.944Z,45.62
2018-08-31T06:30:50.947Z,43.66
2018-08-31T06:45:51.344Z,43.43
2018-08-31T07:00:51.396Z,42.21
2018-08-31T07:15:51.860Z,40.79
2018-08-31T07:30:50.762Z,39.93
2018-08-31T07:45:50.731Z,38.56
2018-08-31T08:45:53.247Z,35.63
2018-08-31T09:45:54.093Z,32.89
2018-08-31T11:30:51.933Z,31.47
2018-08-31T11:45:51.837Z,32.70
2018-08-31T13:15:49.959Z,30.72
2018-08-31T13:30:49.766Z,31.19
2018-08-31T14:15:51.148Z,32.67
2018-08-31T14:30:51.514Z,32.50
2018-08-31T15:00:50.435Z,35.64
2018-08-31T15:15:50.534Z,37.45
2018-08-31T15:30:50.427Z,39.19
2018-08-31T16:00:53.973Z,40.14
2018-08-31T17:00:51.231Z,42.37
2018-08-31T17:45:50.895Z,44.80
2018-08-31T18:00:52.742Z,44.66
2018-08-31T18:15:50.536Z,46.14
2018-08-31T18:30:50.384Z,48.14
2018-08-31T18:45:52.518Z,45.98
2018-08-31T19:00:53.185Z,46.43
2018-08-31T19:15:53.616Z,45.94
2018-08-31T19:30:50.821Z,46.01
2018-08-31T19:45:50.267Z,45.84
2018-08-31T20:00:50.197Z,44.86
2018-08-31T20:15:50.183Z,44.95
2018-08-31T20:30:50.151Z,45.41
2018-08-31T20:45:50.934Z,45.82
2018-08-31T21:00:51.367Z,43.96
2018-08-31T21:15:50.161Z,44.53
2018-08-31T21:30:50.751Z,44.46
2018-08-31T21:45:51.280Z,44.68
2018-08-31T22:00:51.312Z,45.12
2018-08-31T22:15:52.277Z,45.26
2018-08-31T22:30:51.008Z,46.37
2018-08-31T22:45:50.383Z,46.45
2018-08-31T23:00:50.523Z,46.76
2018-08-31T23:15:50.506Z,46.78
2018-08-31T23:30:50.582Z,46.47
2018-08-31T23:45:50.763Z,47.06
